sensor_id;sensor_type;location;lat;lon;timestamp;P1;durP1;ratioP1;P2;durP2;ratioP2
69083;SDS011;56185;48.526;9.044;2023-12-04T00:01:33;37.40;;;17.02;;
69083;SDS011;56185;48.526;9.044;2023-12-04T00:03:58;37.00;;;18.08;;
69083;SDS011;56185;48.526;9.044;2023-12-04T00:06:23;35.72;;;16.73;;
69083;SDS011;56185;48.526;9.044;2023-12-04T00:08:49;30.85;;;15.35;;
69083;SDS011;56185;48.526;9.044;2023-12-04T00:11:14;32.75;;;16.33;;
69083;SDS011;56185;48.526;9.044;2023-12-04T00:13:39;31.45;;;16.55;;
69083;SDS011;56185;48.526;9.044;2023-12-04T00:16:05;31.08;;;16.25;;
69083;SDS011;56185;48.526;9.044;2023-12-04T00:18:30;40.85;;;16.67;;
69083;SDS011;56185;48.526;9.044;2023-12-04T00:20:55;33.08;;;16.75;;
69083;SDS011;56185;48.526;9.044;2023-12-04T00:23:20;32.88;;;16.58;;
69083;SDS011;56185;48.526;9.044;2023-12-04T00:25:46;30.85;;;15.40;;
69083;SDS011;56185;48.526;9.044;2023-12-04T00:28:13;30.10;;;16.20;;
69083;SDS011;56185;48.526;9.044;2023-12-04T00:30:38;31.02;;;16.27;;
69083;SDS011;56185;48.526;9.044;2023-12-04T00:33:03;34.65;;;16.55;;
69083;SDS011;56185;48.526;9.044;2023-12-04T00:35:29;33.83;;;17.10;;
69083;SDS011;56185;48.526;9.044;2023-12-04T00:37:54;33.03;;;16.10;;
69083;SDS011;56185;48.526;9.044;2023-12-04T00:40:19;30.17;;;15.90;;
69083;SDS011;56185;48.526;9.044;2023-12-04T00:42:45;31.35;;;16.48;;
69083;SDS011;56185;48.526;9.044;2023-12-04T00:45:10;32.40;;;16.75;;
69083;SDS011;56185;48.526;9.044;2023-12-04T00:47:35;33.60;;;16.63;;
69083;SDS011;56185;48.526;9.044;2023-12-04T00:50:00;26.98;;;15.02;;
69083;SDS011;56185;48.526;9.044;2023-12-04T00:52:30;30.70;;;15.23;;
69083;SDS011;56185;48.526;9.044;2023-12-04T00:54:55;34.22;;;16.08;;
69083;SDS011;56185;48.526;9.044;2023-12-04T00:57:20;32.03;;;16.88;;
69083;SDS011;56185;48.526;9.044;2023-12-04T00:59:46;35.22;;;16.80;;
69083;SDS011;56185;48.526;9.044;2023-12-04T01:02:11;31.15;;;16.00;;
69083;SDS011;56185;48.526;9.044;2023-12-04T01:04:39;33.10;;;16.50;;
69083;SDS011;56185;48.526;9.044;2023-12-04T01:07:05;32.88;;;16.38;;
69083;SDS011;56185;48.526;9.044;2023-12-04T01:09:30;32.13;;;16.23;;
69083;SDS011;56185;48.526;9.044;2023-12-04T01:11:55;33.90;;;17.10;;
69083;SDS011;56185;48.526;9.044;2023-12-04T01:14:21;35.63;;;16.42;;
69083;SDS011;56185;48.526;9.044;2023-12-04T01:16:46;32.35;;;15.80;;
69083;SDS011;56185;48.526;9.044;2023-12-04T01:19:14;30.52;;;16.10;;
69083;SDS011;56185;48.526;9.044;2023-12-04T01:21:39;31.60;;;15.43;;
69083;SDS011;56185;48.526;9.044;2023-12-04T01:24:04;29.10;;;14.57;;
69083;SDS011;56185;48.526;9.044;2023-12-04T01:26:30;28.98;;;13.60;;
69083;SDS011;56185;48.526;9.044;2023-12-04T01:28:58;28.48;;;14.48;;
69083;SDS011;56185;48.526;9.044;2023-12-04T01:31:27;28.73;;;14.43;;
69083;SDS011;56185;48.526;9.044;2023-12-04T01:33:52;28.95;;;14.55;;
69083;SDS011;56185;48.526;9.044;2023-12-04T01:36:18;29.20;;;14.38;;
69083;SDS011;56185;48.526;9.044;2023-12-04T01:38:43;27.98;;;15.15;;
69083;SDS011;56185;48.526;9.044;2023-12-04T01:41:15;31.60;;;15.20;;
69083;SDS011;56185;48.526;9.044;2023-12-04T01:43:40;25.98;;;14.15;;
69083;SDS011;56185;48.526;9.044;2023-12-04T01:46:06;27.98;;;13.05;;
69083;SDS011;56185;48.526;9.044;2023-12-04T01:48:32;25.33;;;13.63;;
69083;SDS011;56185;48.526;9.044;2023-12-04T01:50:57;24.02;;;13.07;;
69083;SDS011;56185;48.526;9.044;2023-12-04T01:53:25;24.73;;;13.13;;
69083;SDS011;56185;48.526;9.044;2023-12-04T01:55:55;24.92;;;13.65;;
69083;SDS011;56185;48.526;9.044;2023-12-04T01:58:20;23.92;;;12.75;;
69083;SDS011;56185;48.526;9.044;2023-12-04T02:00:46;25.85;;;13.02;;
69083;SDS011;56185;48.526;9.044;2023-12-04T02:03:11;26.02;;;13.48;;
69083;SDS011;56185;48.526;9.044;2023-12-04T02:05:37;25.38;;;13.30;;
69083;SDS011;56185;48.526;9.044;2023-12-04T02:08:02;28.15;;;13.85;;
69083;SDS011;56185;48.526;9.044;2023-12-04T02:10:29;25.45;;;13.60;;
69083;SDS011;56185;48.526;9.044;2023-12-04T02:12:54;27.80;;;14.18;;
69083;SDS011;56185;48.526;9.044;2023-12-04T02:15:33;30.90;;;14.95;;
69083;SDS011;56185;48.526;9.044;2023-12-04T02:17:58;28.42;;;14.57;;
69083;SDS011;56185;48.526;9.044;2023-12-04T02:20:33;27.88;;;14.35;;
69083;SDS011;56185;48.526;9.044;2023-12-04T02:23:00;29.77;;;15.25;;
69083;SDS011;56185;48.526;9.044;2023-12-04T02:25:26;26.80;;;14.48;;
69083;SDS011;56185;48.526;9.044;2023-12-04T02:27:52;30.40;;;14.85;;
69083;SDS011;56185;48.526;9.044;2023-12-04T02:30:19;28.73;;;14.75;;
69083;SDS011;56185;48.526;9.044;2023-12-04T02:32:47;26.92;;;14.30;;
69083;SDS011;56185;48.526;9.044;2023-12-04T02:35:14;31.60;;;14.60;;
69083;SDS011;56185;48.526;9.044;2023-12-04T02:37:41;29.20;;;15.35;;
69083;SDS011;56185;48.526;9.044;2023-12-04T02:40:07;25.15;;;13.60;;
69083;SDS011;56185;48.526;9.044;2023-12-04T02:42:32;27.80;;;13.52;;
69083;SDS011;56185;48.526;9.044;2023-12-04T02:44:59;29.25;;;13.73;;
69083;SDS011;56185;48.526;9.044;2023-12-04T02:47:24;27.85;;;13.82;;
69083;SDS011;56185;48.526;9.044;2023-12-04T02:49:49;28.80;;;14.60;;
69083;SDS011;56185;48.526;9.044;2023-12-04T02:52:15;27.33;;;14.82;;
69083;SDS011;56185;48.526;9.044;2023-12-04T02:54:40;30.70;;;14.82;;
69083;SDS011;56185;48.526;9.044;2023-12-04T02:57:05;24.33;;;12.93;;
69083;SDS011;56185;48.526;9.044;2023-12-04T02:59:30;26.50;;;13.57;;
69083;SDS011;56185;48.526;9.044;2023-12-04T03:01:56;27.13;;;14.13;;
69083;SDS011;56185;48.526;9.044;2023-12-04T03:04:21;27.63;;;14.68;;
69083;SDS011;56185;48.526;9.044;2023-12-04T03:06:47;25.42;;;14.15;;
69083;SDS011;56185;48.526;9.044;2023-12-04T03:09:13;27.75;;;14.52;;
69083;SDS011;56185;48.526;9.044;2023-12-04T03:11:41;26.38;;;13.35;;
69083;SDS011;56185;48.526;9.044;2023-12-04T03:14:07;24.88;;;13.27;;
69083;SDS011;56185;48.526;9.044;2023-12-04T03:16:32;25.98;;;13.68;;
69083;SDS011;56185;48.526;9.044;2023-12-04T03:18:58;26.55;;;13.05;;
69083;SDS011;56185;48.526;9.044;2023-12-04T03:21:23;28.02;;;13.73;;
69083;SDS011;56185;48.526;9.044;2023-12-04T03:23:48;25.73;;;13.45;;
69083;SDS011;56185;48.526;9.044;2023-12-04T03:26:13;28.17;;;13.63;;
69083;SDS011;56185;48.526;9.044;2023-12-04T03:28:39;29.02;;;13.95;;
69083;SDS011;56185;48.526;9.044;2023-12-04T03:31:04;25.13;;;13.85;;
69083;SDS011;56185;48.526;9.044;2023-12-04T03:33:30;27.30;;;13.57;;
69083;SDS011;56185;48.526;9.044;2023-12-04T03:36:00;25.98;;;13.45;;
69083;SDS011;56185;48.526;9.044;2023-12-04T03:38:26;26.48;;;13.07;;
69083;SDS011;56185;48.526;9.044;2023-12-04T03:40:51;23.95;;;12.85;;
69083;SDS011;56185;48.526;9.044;2023-12-04T03:43:17;24.17;;;12.82;;
69083;SDS011;56185;48.526;9.044;2023-12-04T03:45:42;24.23;;;13.32;;
69083;SDS011;56185;48.526;9.044;2023-12-04T03:48:08;25.60;;;13.80;;
69083;SDS011;56185;48.526;9.044;2023-12-04T03:50:33;25.20;;;13.32;;
69083;SDS011;56185;48.526;9.044;2023-12-04T03:52:58;24.55;;;12.63;;
69083;SDS011;56185;48.526;9.044;2023-12-04T03:55:23;22.83;;;12.48;;
69083;SDS011;56185;48.526;9.044;2023-12-04T03:57:48;26.23;;;13.68;;
69083;SDS011;56185;48.526;9.044;2023-12-04T04:00:14;23.30;;;12.38;;
69083;SDS011;56185;48.526;9.044;2023-12-04T04:02:39;22.58;;;12.57;;
69083;SDS011;56185;48.526;9.044;2023-12-04T04:05:05;22.80;;;13.40;;
69083;SDS011;56185;48.526;9.044;2023-12-04T04:07:31;26.08;;;13.15;;
69083;SDS011;56185;48.526;9.044;2023-12-04T04:09:56;26.60;;;13.13;;
69083;SDS011;56185;48.526;9.044;2023-12-04T04:12:22;25.95;;;13.02;;
69083;SDS011;56185;48.526;9.044;2023-12-04T04:14:47;26.10;;;13.38;;
69083;SDS011;56185;48.526;9.044;2023-12-04T04:17:12;26.10;;;13.57;;
69083;SDS011;56185;48.526;9.044;2023-12-04T04:19:38;24.58;;;13.02;;
69083;SDS011;56185;48.526;9.044;2023-12-04T04:22:03;26.77;;;13.13;;
69083;SDS011;56185;48.526;9.044;2023-12-04T04:24:29;23.73;;;12.40;;
69083;SDS011;56185;48.526;9.044;2023-12-04T04:26:54;23.17;;;12.45;;
69083;SDS011;56185;48.526;9.044;2023-12-04T04:29:19;26.90;;;13.23;;
69083;SDS011;56185;48.526;9.044;2023-12-04T04:31:44;24.05;;;13.45;;
69083;SDS011;56185;48.526;9.044;2023-12-04T04:34:10;26.50;;;13.50;;
69083;SDS011;56185;48.526;9.044;2023-12-04T04:36:35;25.38;;;12.95;;
69083;SDS011;56185;48.526;9.044;2023-12-04T04:39:00;26.15;;;13.73;;
69083;SDS011;56185;48.526;9.044;2023-12-04T04:41:25;23.40;;;12.45;;
69083;SDS011;56185;48.526;9.044;2023-12-04T04:43:50;23.73;;;13.13;;
69083;SDS011;56185;48.526;9.044;2023-12-04T04:46:16;25.92;;;13.85;;
69083;SDS011;56185;48.526;9.044;2023-12-04T04:48:41;24.35;;;12.75;;
69083;SDS011;56185;48.526;9.044;2023-12-04T04:51:06;21.85;;;12.25;;
69083;SDS011;56185;48.526;9.044;2023-12-04T04:53:32;21.58;;;12.05;;
69083;SDS011;56185;48.526;9.044;2023-12-04T04:55:57;25.48;;;14.05;;
69083;SDS011;56185;48.526;9.044;2023-12-04T04:58:29;22.50;;;12.65;;
69083;SDS011;56185;48.526;9.044;2023-12-04T05:00:54;24.23;;;13.02;;
69083;SDS011;56185;48.526;9.044;2023-12-04T05:03:20;23.17;;;13.18;;
69083;SDS011;56185;48.526;9.044;2023-12-04T05:05:45;25.52;;;13.55;;
69083;SDS011;56185;48.526;9.044;2023-12-04T05:08:10;26.77;;;13.32;;
69083;SDS011;56185;48.526;9.044;2023-12-04T05:10:35;23.58;;;12.85;;
69083;SDS011;56185;48.526;9.044;2023-12-04T05:13:03;21.13;;;11.88;;
69083;SDS011;56185;48.526;9.044;2023-12-04T05:15:28;22.77;;;12.60;;
69083;SDS011;56185;48.526;9.044;2023-12-04T05:17:55;26.48;;;12.80;;
69083;SDS011;56185;48.526;9.044;2023-12-04T05:20:22;25.42;;;12.63;;
69083;SDS011;56185;48.526;9.044;2023-12-04T05:22:47;25.30;;;13.48;;
69083;SDS011;56185;48.526;9.044;2023-12-04T05:25:13;21.00;;;12.82;;
69083;SDS011;56185;48.526;9.044;2023-12-04T05:27:39;23.38;;;12.18;;
69083;SDS011;56185;48.526;9.044;2023-12-04T05:30:04;26.10;;;12.77;;
69083;SDS011;56185;48.526;9.044;2023-12-04T05:32:30;22.38;;;12.55;;
69083;SDS011;56185;48.526;9.044;2023-12-04T05:34:55;20.33;;;11.95;;
69083;SDS011;56185;48.526;9.044;2023-12-04T05:37:20;22.58;;;12.48;;
69083;SDS011;56185;48.526;9.044;2023-12-04T05:39:46;24.27;;;12.68;;
69083;SDS011;56185;48.526;9.044;2023-12-04T05:42:11;23.17;;;12.90;;
69083;SDS011;56185;48.526;9.044;2023-12-04T05:44:36;21.20;;;12.70;;
69083;SDS011;56185;48.526;9.044;2023-12-04T05:47:01;21.95;;;12.50;;
69083;SDS011;56185;48.526;9.044;2023-12-04T05:49:28;22.77;;;12.80;;
69083;SDS011;56185;48.526;9.044;2023-12-04T05:51:53;21.70;;;12.38;;
69083;SDS011;56185;48.526;9.044;2023-12-04T05:54:18;19.02;;;11.25;;
69083;SDS011;56185;48.526;9.044;2023-12-04T05:56:43;24.42;;;12.65;;
69083;SDS011;56185;48.526;9.044;2023-12-04T05:59:08;19.92;;;11.90;;
69083;SDS011;56185;48.526;9.044;2023-12-04T06:01:34;22.88;;;12.48;;
69083;SDS011;56185;48.526;9.044;2023-12-04T06:03:59;21.27;;;12.90;;
69083;SDS011;56185;48.526;9.044;2023-12-04T06:06:24;25.10;;;13.50;;
69083;SDS011;56185;48.526;9.044;2023-12-04T06:08:49;25.10;;;14.13;;
69083;SDS011;56185;48.526;9.044;2023-12-04T06:11:15;24.20;;;13.40;;
69083;SDS011;56185;48.526;9.044;2023-12-04T06:13:40;26.15;;;13.57;;
69083;SDS011;56185;48.526;9.044;2023-12-04T06:16:06;19.73;;;12.80;;
69083;SDS011;56185;48.526;9.044;2023-12-04T06:18:31;24.10;;;13.15;;
69083;SDS011;56185;48.526;9.044;2023-12-04T06:20:56;23.75;;;13.43;;
69083;SDS011;56185;48.526;9.044;2023-12-04T06:23:22;25.75;;;13.45;;
69083;SDS011;56185;48.526;9.044;2023-12-04T06:25:47;24.27;;;13.27;;
69083;SDS011;56185;48.526;9.044;2023-12-04T06:28:13;20.40;;;12.05;;
69083;SDS011;56185;48.526;9.044;2023-12-04T06:30:39;21.55;;;11.98;;
69083;SDS011;56185;48.526;9.044;2023-12-04T06:33:05;22.17;;;12.52;;
69083;SDS011;56185;48.526;9.044;2023-12-04T06:35:31;22.85;;;12.82;;
69083;SDS011;56185;48.526;9.044;2023-12-04T06:37:56;20.10;;;12.68;;
69083;SDS011;56185;48.526;9.044;2023-12-04T06:40:29;21.48;;;11.70;;
69083;SDS011;56185;48.526;9.044;2023-12-04T06:42:58;22.65;;;12.73;;
69083;SDS011;56185;48.526;9.044;2023-12-04T06:45:24;22.50;;;12.48;;
69083;SDS011;56185;48.526;9.044;2023-12-04T06:47:50;24.67;;;13.18;;
69083;SDS011;56185;48.526;9.044;2023-12-04T06:50:16;21.23;;;12.57;;
69083;SDS011;56185;48.526;9.044;2023-12-04T06:52:41;22.30;;;13.13;;
69083;SDS011;56185;48.526;9.044;2023-12-04T06:55:07;24.83;;;12.90;;
69083;SDS011;56185;48.526;9.044;2023-12-04T06:57:33;22.65;;;12.70;;
69083;SDS011;56185;48.526;9.044;2023-12-04T06:59:58;23.13;;;13.25;;
69083;SDS011;56185;48.526;9.044;2023-12-04T07:02:23;23.25;;;12.52;;
69083;SDS011;56185;48.526;9.044;2023-12-04T07:04:48;20.33;;;12.10;;
69083;SDS011;56185;48.526;9.044;2023-12-04T07:07:20;25.45;;;13.07;;
69083;SDS011;56185;48.526;9.044;2023-12-04T07:09:47;20.17;;;11.55;;
69083;SDS011;56185;48.526;9.044;2023-12-04T07:12:12;21.95;;;11.77;;
69083;SDS011;56185;48.526;9.044;2023-12-04T07:14:37;28.05;;;13.68;;
69083;SDS011;56185;48.526;9.044;2023-12-04T07:17:03;23.85;;;12.93;;
69083;SDS011;56185;48.526;9.044;2023-12-04T07:19:40;23.60;;;12.70;;
69083;SDS011;56185;48.526;9.044;2023-12-04T07:22:06;25.00;;;13.32;;
69083;SDS011;56185;48.526;9.044;2023-12-04T07:24:31;24.63;;;13.43;;
69083;SDS011;56185;48.526;9.044;2023-12-04T07:26:56;22.77;;;12.38;;
69083;SDS011;56185;48.526;9.044;2023-12-04T07:29:22;22.70;;;12.70;;
69083;SDS011;56185;48.526;9.044;2023-12-04T07:31:48;22.30;;;12.80;;
69083;SDS011;56185;48.526;9.044;2023-12-04T07:34:19;25.15;;;12.65;;
69083;SDS011;56185;48.526;9.044;2023-12-04T07:36:44;22.45;;;12.57;;
69083;SDS011;56185;48.526;9.044;2023-12-04T07:39:10;23.80;;;13.15;;
69083;SDS011;56185;48.526;9.044;2023-12-04T07:41:35;24.80;;;13.07;;
69083;SDS011;56185;48.526;9.044;2023-12-04T07:44:01;24.65;;;12.98;;
69083;SDS011;56185;48.526;9.044;2023-12-04T07:46:26;22.80;;;12.80;;
69083;SDS011;56185;48.526;9.044;2023-12-04T07:48:52;21.27;;;12.65;;
69083;SDS011;56185;48.526;9.044;2023-12-04T07:51:17;23.75;;;13.10;;
69083;SDS011;56185;48.526;9.044;2023-12-04T07:53:42;22.95;;;13.43;;
69083;SDS011;56185;48.526;9.044;2023-12-04T07:56:08;20.77;;;12.93;;
69083;SDS011;56185;48.526;9.044;2023-12-04T07:58:33;22.08;;;12.82;;
69083;SDS011;56185;48.526;9.044;2023-12-04T08:00:58;21.35;;;12.68;;
69083;SDS011;56185;48.526;9.044;2023-12-04T08:03:24;19.70;;;12.48;;
69083;SDS011;56185;48.526;9.044;2023-12-04T08:05:52;24.67;;;12.80;;
69083;SDS011;56185;48.526;9.044;2023-12-04T08:08:17;22.10;;;12.60;;
69083;SDS011;56185;48.526;9.044;2023-12-04T08:10:43;22.90;;;12.13;;
69083;SDS011;56185;48.526;9.044;2023-12-04T08:13:08;22.83;;;12.13;;
69083;SDS011;56185;48.526;9.044;2023-12-04T08:15:33;20.52;;;11.20;;
69083;SDS011;56185;48.526;9.044;2023-12-04T08:17:58;21.50;;;11.23;;
69083;SDS011;56185;48.526;9.044;2023-12-04T08:20:24;19.85;;;11.35;;
69083;SDS011;56185;48.526;9.044;2023-12-04T08:22:49;23.08;;;11.68;;
69083;SDS011;56185;48.526;9.044;2023-12-04T08:25:14;18.67;;;10.63;;
69083;SDS011;56185;48.526;9.044;2023-12-04T08:27:40;20.63;;;11.10;;
69083;SDS011;56185;48.526;9.044;2023-12-04T08:30:05;17.60;;;11.05;;
69083;SDS011;56185;48.526;9.044;2023-12-04T08:32:31;20.90;;;10.95;;
69083;SDS011;56185;48.526;9.044;2023-12-04T08:34:56;19.55;;;12.05;;
69083;SDS011;56185;48.526;9.044;2023-12-04T08:37:21;20.25;;;11.75;;
69083;SDS011;56185;48.526;9.044;2023-12-04T08:39:47;21.23;;;11.45;;
69083;SDS011;56185;48.526;9.044;2023-12-04T08:42:12;27.50;;;14.57;;
69083;SDS011;56185;48.526;9.044;2023-12-04T08:44:37;19.00;;;11.35;;
69083;SDS011;56185;48.526;9.044;2023-12-04T08:47:04;21.45;;;12.00;;
69083;SDS011;56185;48.526;9.044;2023-12-04T08:49:29;18.75;;;11.18;;
69083;SDS011;56185;48.526;9.044;2023-12-04T08:51:55;22.30;;;11.98;;
69083;SDS011;56185;48.526;9.044;2023-12-04T08:54:20;20.17;;;11.27;;
69083;SDS011;56185;48.526;9.044;2023-12-04T08:56:45;20.52;;;12.13;;
69083;SDS011;56185;48.526;9.044;2023-12-04T08:59:11;22.05;;;11.10;;
69083;SDS011;56185;48.526;9.044;2023-12-04T09:01:36;21.20;;;11.55;;
69083;SDS011;56185;48.526;9.044;2023-12-04T09:04:01;22.17;;;11.95;;
69083;SDS011;56185;48.526;9.044;2023-12-04T09:06:27;20.20;;;10.63;;
69083;SDS011;56185;48.526;9.044;2023-12-04T09:08:52;19.05;;;10.50;;
69083;SDS011;56185;48.526;9.044;2023-12-04T09:11:17;20.63;;;11.98;;
69083;SDS011;56185;48.526;9.044;2023-12-04T09:13:42;19.75;;;11.52;;
69083;SDS011;56185;48.526;9.044;2023-12-04T09:16:08;21.95;;;12.32;;
69083;SDS011;56185;48.526;9.044;2023-12-04T09:18:33;22.85;;;13.05;;
69083;SDS011;56185;48.526;9.044;2023-12-04T09:20:58;23.10;;;12.90;;
69083;SDS011;56185;48.526;9.044;2023-12-04T09:23:24;23.25;;;12.80;;
69083;SDS011;56185;48.526;9.044;2023-12-04T09:25:49;20.20;;;11.90;;
69083;SDS011;56185;48.526;9.044;2023-12-04T09:28:14;19.85;;;11.70;;
69083;SDS011;56185;48.526;9.044;2023-12-04T09:30:39;21.88;;;11.98;;
69083;SDS011;56185;48.526;9.044;2023-12-04T09:33:05;21.67;;;12.63;;
69083;SDS011;56185;48.526;9.044;2023-12-04T09:35:30;21.27;;;11.90;;
69083;SDS011;56185;48.526;9.044;2023-12-04T09:37:55;23.88;;;12.73;;
69083;SDS011;56185;48.526;9.044;2023-12-04T09:40:20;21.35;;;12.55;;
69083;SDS011;56185;48.526;9.044;2023-12-04T09:42:46;20.95;;;11.70;;
69083;SDS011;56185;48.526;9.044;2023-12-04T09:45:11;19.60;;;11.45;;
69083;SDS011;56185;48.526;9.044;2023-12-04T09:47:37;18.88;;;11.80;;
69083;SDS011;56185;48.526;9.044;2023-12-04T09:50:03;22.02;;;12.35;;
69083;SDS011;56185;48.526;9.044;2023-12-04T09:52:28;20.83;;;11.50;;
69083;SDS011;56185;48.526;9.044;2023-12-04T09:54:55;17.48;;;10.73;;
69083;SDS011;56185;48.526;9.044;2023-12-04T09:57:21;20.00;;;11.77;;
69083;SDS011;56185;48.526;9.044;2023-12-04T09:59:47;18.52;;;11.70;;
69083;SDS011;56185;48.526;9.044;2023-12-04T10:02:14;19.15;;;10.77;;
69083;SDS011;56185;48.526;9.044;2023-12-04T10:04:39;18.77;;;11.40;;
69083;SDS011;56185;48.526;9.044;2023-12-04T10:07:06;19.92;;;11.75;;
69083;SDS011;56185;48.526;9.044;2023-12-04T10:09:33;19.88;;;10.55;;
69083;SDS011;56185;48.526;9.044;2023-12-04T10:11:58;20.38;;;11.13;;
69083;SDS011;56185;48.526;9.044;2023-12-04T10:14:24;18.92;;;10.90;;
69083;SDS011;56185;48.526;9.044;2023-12-04T10:16:49;19.35;;;11.38;;
69083;SDS011;56185;48.526;9.044;2023-12-04T10:19:25;19.98;;;11.55;;
69083;SDS011;56185;48.526;9.044;2023-12-04T10:21:52;23.08;;;11.40;;
69083;SDS011;56185;48.526;9.044;2023-12-04T10:24:28;20.73;;;11.50;;
69083;SDS011;56185;48.526;9.044;2023-12-04T10:29:19;16.92;;;9.48;;
69083;SDS011;56185;48.526;9.044;2023-12-04T10:31:47;18.63;;;10.30;;
69083;SDS011;56185;48.526;9.044;2023-12-04T10:34:14;19.35;;;11.43;;
69083;SDS011;56185;48.526;9.044;2023-12-04T10:36:39;21.27;;;11.95;;
69083;SDS011;56185;48.526;9.044;2023-12-04T10:39:05;19.58;;;11.55;;
69083;SDS011;56185;48.526;9.044;2023-12-04T10:41:30;18.45;;;11.25;;
69083;SDS011;56185;48.526;9.044;2023-12-04T10:43:55;18.48;;;11.68;;
69083;SDS011;56185;48.526;9.044;2023-12-04T10:46:21;20.00;;;12.20;;
69083;SDS011;56185;48.526;9.044;2023-12-04T10:48:47;20.63;;;11.77;;
69083;SDS011;56185;48.526;9.044;2023-12-04T10:51:12;20.95;;;11.95;;
69083;SDS011;56185;48.526;9.044;2023-12-04T10:53:39;25.30;;;13.55;;
69083;SDS011;56185;48.526;9.044;2023-12-04T10:56:05;22.75;;;12.88;;
69083;SDS011;56185;48.526;9.044;2023-12-04T10:58:31;20.35;;;11.45;;
69083;SDS011;56185;48.526;9.044;2023-12-04T11:00:58;18.65;;;11.48;;
69083;SDS011;56185;48.526;9.044;2023-12-04T11:03:25;20.60;;;11.98;;
69083;SDS011;56185;48.526;9.044;2023-12-04T11:05:56;21.67;;;12.15;;
69083;SDS011;56185;48.526;9.044;2023-12-04T11:08:29;25.50;;;12.50;;
69083;SDS011;56185;48.526;9.044;2023-12-04T11:15:52;20.02;;;12.32;;
69083;SDS011;56185;48.526;9.044;2023-12-04T11:18:20;21.10;;;13.57;;
69083;SDS011;56185;48.526;9.044;2023-12-04T11:20:49;26.50;;;13.50;;
69083;SDS011;56185;48.526;9.044;2023-12-04T11:23:18;27.15;;;13.68;;
69083;SDS011;56185;48.526;9.044;2023-12-04T11:25:45;26.40;;;14.73;;
69083;SDS011;56185;48.526;9.044;2023-12-04T11:28:10;23.38;;;14.18;;
69083;SDS011;56185;48.526;9.044;2023-12-04T11:30:37;23.77;;;14.00;;
69083;SDS011;56185;48.526;9.044;2023-12-04T11:33:04;23.27;;;14.10;;
69083;SDS011;56185;48.526;9.044;2023-12-04T11:35:30;21.92;;;13.65;;
69083;SDS011;56185;48.526;9.044;2023-12-04T11:37:55;23.73;;;14.05;;
69083;SDS011;56185;48.526;9.044;2023-12-04T11:40:20;23.13;;;13.45;;
69083;SDS011;56185;48.526;9.044;2023-12-04T11:42:45;24.35;;;14.30;;
69083;SDS011;56185;48.526;9.044;2023-12-04T11:45:17;21.27;;;13.52;;
69083;SDS011;56185;48.526;9.044;2023-12-04T11:50:22;20.00;;;12.13;;
69083;SDS011;56185;48.526;9.044;2023-12-04T11:52:49;22.95;;;12.40;;
69083;SDS011;56185;48.526;9.044;2023-12-04T11:55:18;18.98;;;12.35;;
69083;SDS011;56185;48.526;9.044;2023-12-04T11:57:50;19.70;;;12.07;;
69083;SDS011;56185;48.526;9.044;2023-12-04T12:02:46;24.13;;;13.32;;
69083;SDS011;56185;48.526;9.044;2023-12-04T12:05:24;20.65;;;11.93;;
69083;SDS011;56185;48.526;9.044;2023-12-04T12:07:50;20.50;;;12.40;;
69083;SDS011;56185;48.526;9.044;2023-12-04T12:10:16;20.00;;;11.95;;
69083;SDS011;56185;48.526;9.044;2023-12-04T12:12:44;25.17;;;13.15;;
69083;SDS011;56185;48.526;9.044;2023-12-04T12:15:10;19.70;;;11.95;;
69083;SDS011;56185;48.526;9.044;2023-12-04T12:17:39;20.67;;;12.07;;
69083;SDS011;56185;48.526;9.044;2023-12-04T12:20:08;19.15;;;11.80;;
69083;SDS011;56185;48.526;9.044;2023-12-04T12:22:35;22.60;;;12.80;;
69083;SDS011;56185;48.526;9.044;2023-12-04T12:25:04;19.52;;;11.38;;
69083;SDS011;56185;48.526;9.044;2023-12-04T12:27:32;21.15;;;11.23;;
69083;SDS011;56185;48.526;9.044;2023-12-04T12:29:57;23.00;;;12.93;;
69083;SDS011;56185;48.526;9.044;2023-12-04T12:32:22;20.17;;;12.73;;
69083;SDS011;56185;48.526;9.044;2023-12-04T12:34:48;19.55;;;12.13;;
69083;SDS011;56185;48.526;9.044;2023-12-04T12:37:13;20.33;;;12.35;;
69083;SDS011;56185;48.526;9.044;2023-12-04T12:39:40;19.17;;;12.07;;
69083;SDS011;56185;48.526;9.044;2023-12-04T12:42:05;22.83;;;13.43;;
69083;SDS011;56185;48.526;9.044;2023-12-04T12:44:38;25.88;;;14.27;;
69083;SDS011;56185;48.526;9.044;2023-12-04T12:47:04;21.00;;;12.40;;
69083;SDS011;56185;48.526;9.044;2023-12-04T12:49:30;21.98;;;12.13;;
69083;SDS011;56185;48.526;9.044;2023-12-04T12:51:56;21.17;;;12.95;;
69083;SDS011;56185;48.526;9.044;2023-12-04T12:54:23;20.83;;;12.13;;
69083;SDS011;56185;48.526;9.044;2023-12-04T12:56:48;21.23;;;12.43;;
69083;SDS011;56185;48.526;9.044;2023-12-04T12:59:14;20.13;;;12.38;;
69083;SDS011;56185;48.526;9.044;2023-12-04T13:01:40;19.90;;;12.02;;
69083;SDS011;56185;48.526;9.044;2023-12-04T13:04:06;20.25;;;12.48;;
69083;SDS011;56185;48.526;9.044;2023-12-04T13:06:31;21.10;;;12.90;;
69083;SDS011;56185;48.526;9.044;2023-12-04T13:08:57;19.77;;;11.85;;
69083;SDS011;56185;48.526;9.044;2023-12-04T13:11:22;18.73;;;11.67;;
69083;SDS011;56185;48.526;9.044;2023-12-04T13:13:47;19.40;;;11.50;;
69083;SDS011;56185;48.526;9.044;2023-12-04T13:16:13;20.58;;;12.73;;
69083;SDS011;56185;48.526;9.044;2023-12-04T13:18:38;22.58;;;12.77;;
69083;SDS011;56185;48.526;9.044;2023-12-04T13:21:03;19.90;;;12.55;;
69083;SDS011;56185;48.526;9.044;2023-12-04T13:23:29;20.77;;;12.25;;
69083;SDS011;56185;48.526;9.044;2023-12-04T13:25:54;21.77;;;13.15;;
69083;SDS011;56185;48.526;9.044;2023-12-04T13:28:20;20.33;;;11.70;;
69083;SDS011;56185;48.526;9.044;2023-12-04T13:30:45;19.85;;;11.68;;
69083;SDS011;56185;48.526;9.044;2023-12-04T13:33:11;17.15;;;10.60;;
69083;SDS011;56185;48.526;9.044;2023-12-04T13:35:36;20.45;;;11.30;;
69083;SDS011;56185;48.526;9.044;2023-12-04T13:38:01;18.17;;;10.98;;
69083;SDS011;56185;48.526;9.044;2023-12-04T13:40:26;20.15;;;12.40;;
69083;SDS011;56185;48.526;9.044;2023-12-04T13:42:52;18.67;;;11.60;;
69083;SDS011;56185;48.526;9.044;2023-12-04T13:45:18;23.38;;;13.25;;
69083;SDS011;56185;48.526;9.044;2023-12-04T13:47:43;20.23;;;12.57;;
69083;SDS011;56185;48.526;9.044;2023-12-04T13:50:09;20.35;;;11.15;;
69083;SDS011;56185;48.526;9.044;2023-12-04T13:52:34;18.67;;;11.50;;
69083;SDS011;56185;48.526;9.044;2023-12-04T13:55:00;19.25;;;12.20;;
69083;SDS011;56185;48.526;9.044;2023-12-04T13:57:26;20.63;;;12.32;;
69083;SDS011;56185;48.526;9.044;2023-12-04T13:59:51;20.27;;;12.45;;
69083;SDS011;56185;48.526;9.044;2023-12-04T14:02:16;21.88;;;13.15;;
69083;SDS011;56185;48.526;9.044;2023-12-04T14:04:42;22.95;;;13.88;;
69083;SDS011;56185;48.526;9.044;2023-12-04T14:07:07;23.35;;;13.60;;
69083;SDS011;56185;48.526;9.044;2023-12-04T14:09:32;21.40;;;13.35;;
69083;SDS011;56185;48.526;9.044;2023-12-04T14:11:57;25.35;;;13.48;;
69083;SDS011;56185;48.526;9.044;2023-12-04T14:14:23;18.98;;;11.80;;
69083;SDS011;56185;48.526;9.044;2023-12-04T14:16:48;27.40;;;13.38;;
69083;SDS011;56185;48.526;9.044;2023-12-04T14:19:13;19.30;;;12.18;;
69083;SDS011;56185;48.526;9.044;2023-12-04T14:21:39;23.65;;;13.45;;
69083;SDS011;56185;48.526;9.044;2023-12-04T14:24:04;22.45;;;13.43;;
69083;SDS011;56185;48.526;9.044;2023-12-04T14:26:30;20.65;;;13.23;;